Toad Hop, Indiana
Current Conditions -  °F | °C
As of 12:53 PM on Thursday 29 Jan 2015 (Local Time) from KHUF Reporting Station
Haze Haze  
Wind Chill: 26°   Ceiling: 1200
Heat Index: 36°   Visibility: 6mi
Dew Point: 31°   Wind: 18mph
Humidity: 82%   Direction: 300°WNW
Pressure: 30"   Gusts: 26mph
Location:  39.5107°N, 87.4772°W
Report Text: KHUF 291753Z 30016G23KT 6SM HZ OVC012 02/M01 A3000 RMK AO2 PK WND 30026/1710 SLP162 T00221006 10067 20022 51043
Loading
Personal Weather Stations






























Interactive Weather Map New forecast layout! Learn more

10-Day Weather Forecast

Advertisements
Track Severe Weather on mobile